createdAt,value
2018-12-18T00:00:18.743Z,85.51
2018-12-18T00:01:18.780Z,85.82
2018-12-18T00:02:18.699Z,85.86
2018-12-18T00:03:18.694Z,85.75
2018-12-18T00:04:18.681Z,85.72
2018-12-18T00:05:18.686Z,85.96
2018-12-18T00:06:18.655Z,86.13
2018-12-18T00:07:18.643Z,86.24
2018-12-18T00:08:18.635Z,86.17
2018-12-18T00:09:18.625Z,86.34
2018-12-18T00:10:18.626Z,86.38
2018-12-18T00:11:18.607Z,86.59
2018-12-18T00:12:18.590Z,87.01
2018-12-18T00:13:18.578Z,87.73
2018-12-18T00:14:18.564Z,87.42
2018-12-18T00:15:18.573Z,87.73
2018-12-18T00:16:18.539Z,87.42
2018-12-18T00:17:18.536Z,86.59
2018-12-18T00:18:18.525Z,87.73
2018-12-18T00:19:18.514Z,87.52
2018-12-18T00:20:18.523Z,87.73
2018-12-18T00:21:18.485Z,87.63
2018-12-18T00:22:18.477Z,87.73
2018-12-18T00:23:18.470Z,87.73
2018-12-18T00:24:18.454Z,87.73
2018-12-18T00:25:18.461Z,87.63
2018-12-18T00:26:18.435Z,87.73
2018-12-18T00:27:18.419Z,86.83
2018-12-18T00:28:18.410Z,86.69
2018-12-18T00:29:18.401Z,87.42
2018-12-18T00:30:18.409Z,87.63
2018-12-18T00:31:18.379Z,87.32
2018-12-18T00:32:18.370Z,87.32
2018-12-18T00:33:18.357Z,87.01
2018-12-18T00:34:18.343Z,86.80
2018-12-18T00:35:18.335Z,86.80
2018-12-18T00:36:18.343Z,86.80
2018-12-18T00:37:18.315Z,87.73
2018-12-18T00:38:18.299Z,87.84
2018-12-18T00:39:18.297Z,87.73
2018-12-18T00:40:18.273Z,87.84
2018-12-18T00:41:18.299Z,87.84
2018-12-18T00:42:18.257Z,87.84
2018-12-18T00:43:18.247Z,87.52
2018-12-18T00:44:18.231Z,87.73
2018-12-18T00:45:18.219Z,87.94
2018-12-18T00:46:18.233Z,86.80
2018-12-18T00:47:18.199Z,86.80
2018-12-18T00:48:18.187Z,86.69
2018-12-18T00:49:18.177Z,87.32
2018-12-18T00:50:18.167Z,87.01
2018-12-18T00:51:18.171Z,88.46
2018-12-18T00:52:18.141Z,87.73
2018-12-18T00:53:18.130Z,87.79
2018-12-18T00:54:18.116Z,87.59
2018-12-18T00:55:18.111Z,87.63
2018-12-18T00:56:18.112Z,87.63
2018-12-18T00:57:18.091Z,87.42
2018-12-18T00:58:18.079Z,87.94
2018-12-18T00:59:18.071Z,87.27
2018-12-18T01:00:18.059Z,88.04
2018-12-18T01:01:18.057Z,88.25
2018-12-18T01:02:18.032Z,88.35
2018-12-18T01:03:18.104Z,88.15
2018-12-18T01:04:18.017Z,88.35
2018-12-18T01:05:17.995Z,88.42
2018-12-18T01:06:18.008Z,88.46
2018-12-18T01:07:17.977Z,88.04
2018-12-18T01:08:17.967Z,88.77
2018-12-18T01:09:17.952Z,88.25
2018-12-18T01:10:17.941Z,88.56
2018-12-18T01:11:17.947Z,89.36
2018-12-18T01:12:17.922Z,89.39
2018-12-18T01:13:17.908Z,89.60
2018-12-18T01:14:17.894Z,89.39
2018-12-18T01:15:17.890Z,89.29
2018-12-18T01:16:17.905Z,89.50
2018-12-18T01:17:17.863Z,89.08
2018-12-18T01:18:17.858Z,89.39
2018-12-18T01:19:17.841Z,89.08
2018-12-18T01:20:17.840Z,89.29
2018-12-18T01:21:17.849Z,89.04
2018-12-18T01:22:17.813Z,89.18
2018-12-18T01:23:17.791Z,89.70
2018-12-18T01:24:17.786Z,88.94
2018-12-18T01:25:17.774Z,89.70
2018-12-18T01:26:17.767Z,89.70
2018-12-18T01:27:17.765Z,89.70
2018-12-18T01:28:17.739Z,89.81
2018-12-18T01:29:17.730Z,89.60
2018-12-18T01:30:17.715Z,89.70
2018-12-18T01:31:17.708Z,89.39
2018-12-18T01:32:17.728Z,89.36
2018-12-18T01:33:17.684Z,89.70
2018-12-18T01:34:17.669Z,89.36
2018-12-18T01:35:17.670Z,89.70
2018-12-18T01:36:17.650Z,89.50
2018-12-18T01:37:17.658Z,89.67
2018-12-18T01:38:17.630Z,89.39
2018-12-18T01:39:17.618Z,89.92
2018-12-18T01:40:17.605Z,89.81
2018-12-18T01:41:17.594Z,89.39
2018-12-18T01:42:17.652Z,89.56
2018-12-18T01:43:17.584Z,89.39
2018-12-18T01:44:17.562Z,89.36
2018-12-18T01:45:17.548Z,89.50
2018-12-18T01:46:17.544Z,89.56
2018-12-18T01:47:17.544Z,89.60
2018-12-18T01:48:17.514Z,89.67
2018-12-18T01:49:17.504Z,89.70
2018-12-18T01:50:17.498Z,89.67
2018-12-18T01:51:17.478Z,89.56
2018-12-18T01:52:17.495Z,89.50
2018-12-18T01:53:17.464Z,89.46
2018-12-18T01:54:17.457Z,89.70
2018-12-18T01:55:17.440Z,89.70
2018-12-18T01:56:17.428Z,89.60
2018-12-18T01:57:17.436Z,90.02
2018-12-18T01:58:17.664Z,89.77
2018-12-18T01:59:17.399Z,90.08
2018-12-18T02:00:17.385Z,89.70
2018-12-18T02:01:17.375Z,89.67
2018-12-18T02:02:17.384Z,89.56
2018-12-18T02:03:17.351Z,89.98
2018-12-18T02:04:17.339Z,89.77
2018-12-18T02:05:17.330Z,89.67
2018-12-18T02:06:17.320Z,90.12
2018-12-18T02:07:17.321Z,89.92
2018-12-18T02:08:17.292Z,90.29
2018-12-18T02:09:17.279Z,90.23
2018-12-18T02:10:17.283Z,90.12
2018-12-18T02:11:17.260Z,90.29
2018-12-18T02:12:17.269Z,90.08
2018-12-18T02:13:17.241Z,89.92
2018-12-18T02:14:17.229Z,89.98
2018-12-18T02:15:17.216Z,90.19
2018-12-18T02:16:17.211Z,90.19
2018-12-18T02:17:17.210Z,90.19
2018-12-18T02:18:17.179Z,89.98
2018-12-18T02:19:17.174Z,89.98
2018-12-18T02:20:17.158Z,89.87
2018-12-18T02:21:17.145Z,90.19
2018-12-18T02:22:17.151Z,90.19
2018-12-18T02:23:17.246Z,89.87
2018-12-18T02:24:17.113Z,90.19
2018-12-18T02:25:17.105Z,89.98
2018-12-18T02:26:17.089Z,89.98
2018-12-18T02:27:17.091Z,90.19
2018-12-18T02:28:17.072Z,90.50
2018-12-18T02:29:17.061Z,90.39
2018-12-18T02:30:17.050Z,90.29
2018-12-18T02:31:17.040Z,90.60
2018-12-18T02:32:17.049Z,90.39
2018-12-18T02:33:17.015Z,90.29
2018-12-18T02:34:17.005Z,90.08
2018-12-18T02:35:17.041Z,90.45
2018-12-18T02:36:16.979Z,90.50
2018-12-18T02:37:17.053Z,90.39
2018-12-18T02:38:16.966Z,90.39
2018-12-18T02:39:16.951Z,90.08
2018-12-18T02:40:16.944Z,90.29
2018-12-18T02:41:16.934Z,90.50
2018-12-18T02:42:16.935Z,90.39
2018-12-18T02:43:16.919Z,90.45
2018-12-18T02:44:16.891Z,90.50
2018-12-18T02:45:16.898Z,90.56
2018-12-18T02:46:16.870Z,89.94
2018-12-18T02:47:16.889Z,89.94
2018-12-18T02:48:16.845Z,90.25
2018-12-18T02:49:16.838Z,90.14
2018-12-18T02:50:16.828Z,90.04
2018-12-18T02:51:16.814Z,89.73
2018-12-18T02:52:16.825Z,89.83
2018-12-18T02:53:16.794Z,89.83
2018-12-18T02:54:16.802Z,90.14
2018-12-18T02:55:16.835Z,90.04
2018-12-18T02:56:16.756Z,90.04
2018-12-18T02:57:16.784Z,90.14
2018-12-18T02:58:16.737Z,90.56
2018-12-18T02:59:16.906Z,90.14
2018-12-18T03:00:16.715Z,90.14
2018-12-18T03:01:16.700Z,90.14
2018-12-18T03:02:16.692Z,90.45
2018-12-18T03:03:16.863Z,89.94
2018-12-18T03:04:21.407Z,90.14
2018-12-18T03:05:17.654Z,90.56
2018-12-18T03:06:16.640Z,90.45
2018-12-18T03:07:16.641Z,90.56
2018-12-18T03:08:16.638Z,90.45
2018-12-18T03:09:16.703Z,90.56
2018-12-18T03:10:16.609Z,90.66
2018-12-18T03:11:16.590Z,90.45
2018-12-18T03:12:16.582Z,90.56
2018-12-18T03:13:16.587Z,90.52
2018-12-18T03:14:16.556Z,90.45
2018-12-18T03:15:16.558Z,90.66
2018-12-18T03:16:16.537Z,90.56
2018-12-18T03:17:16.527Z,90.56
2018-12-18T03:18:16.528Z,90.56
2018-12-18T03:19:16.499Z,90.35
2018-12-18T03:20:16.489Z,90.72
2018-12-18T03:21:16.473Z,90.66
2018-12-18T03:22:16.469Z,90.72
2018-12-18T03:23:16.503Z,90.72
2018-12-18T03:24:16.450Z,90.52
2018-12-18T03:25:16.445Z,90.56
2018-12-18T03:26:16.422Z,90.77
2018-12-18T03:27:16.410Z,91.60
2018-12-18T03:28:16.418Z,91.70
2018-12-18T03:29:16.391Z,91.49
2018-12-18T03:30:16.384Z,91.39
2018-12-18T03:31:16.365Z,91.28
2018-12-18T03:32:16.363Z,91.49
2018-12-18T03:33:16.366Z,91.60
2018-12-18T03:34:16.335Z,91.95
2018-12-18T03:35:16.320Z,92.01
2018-12-18T03:36:16.318Z,91.91
2018-12-18T03:37:16.300Z,92.01
2018-12-18T03:38:16.312Z,92.32
2018-12-18T03:39:16.274Z,92.22
2018-12-18T03:40:16.267Z,92.22
2018-12-18T03:41:16.254Z,91.91
2018-12-18T03:42:16.262Z,92.53
2018-12-18T03:43:16.246Z,92.22
2018-12-18T03:44:16.226Z,92.01
2018-12-18T03:45:16.216Z,91.91
2018-12-18T03:46:16.199Z,92.32
2018-12-18T03:47:16.206Z,92.43
2018-12-18T03:48:16.258Z,92.63
2018-12-18T03:49:16.171Z,92.63
2018-12-18T03:50:16.161Z,92.63
2018-12-18T03:51:16.141Z,92.59
2018-12-18T03:52:16.130Z,92.59
2018-12-18T03:53:16.146Z,92.28
2018-12-18T03:54:16.107Z,92.18
2018-12-18T03:55:16.098Z,91.97
2018-12-18T03:56:16.087Z,92.18
2018-12-18T03:57:16.072Z,92.59
2018-12-18T03:58:16.082Z,92.38
2018-12-18T03:59:16.057Z,92.38
2018-12-18T04:00:16.044Z,92.59
2018-12-18T04:01:16.033Z,92.84
2018-12-18T04:02:16.014Z,92.84
2018-12-18T04:03:16.024Z,93.37
2018-12-18T04:04:16.014Z,92.94
2018-12-18T04:05:15.986Z,93.16
2018-12-18T04:06:15.986Z,93.88
2018-12-18T04:07:15.970Z,93.88
2018-12-18T04:08:15.964Z,93.78
2018-12-18T04:09:15.938Z,93.68
2018-12-18T04:10:15.936Z,93.68
2018-12-18T04:11:15.928Z,93.47
2018-12-18T04:12:15.914Z,93.68
2018-12-18T04:13:15.898Z,93.57
2018-12-18T04:14:15.899Z,93.57
2018-12-18T04:15:15.877Z,93.57
2018-12-18T04:16:15.858Z,93.78
2018-12-18T04:17:15.854Z,93.68
2018-12-18T04:18:15.836Z,93.88
2018-12-18T04:19:15.846Z,93.63
2018-12-18T04:20:15.818Z,93.57
2018-12-18T04:21:15.807Z,93.63
2018-12-18T04:22:15.805Z,93.53
2018-12-18T04:23:15.785Z,93.37
2018-12-18T04:24:15.785Z,93.74
2018-12-18T04:25:15.759Z,94.15
2018-12-18T04:26:15.749Z,94.36
2018-12-18T04:27:15.740Z,94.15
2018-12-18T04:28:15.731Z,93.95
2018-12-18T04:29:15.728Z,93.74
2018-12-18T04:30:15.709Z,93.84
2018-12-18T04:31:15.693Z,94.15
2018-12-18T04:32:15.682Z,93.95
2018-12-18T04:33:15.675Z,94.46
2018-12-18T04:34:15.677Z,94.09
2018-12-18T04:35:15.649Z,94.09
2018-12-18T04:36:15.637Z,94.30
2018-12-18T04:37:15.629Z,94.15
2018-12-18T04:38:15.612Z,94.26
2018-12-18T04:39:15.621Z,94.46
2018-12-18T04:40:15.591Z,94.26
2018-12-18T04:41:15.586Z,94.26
2018-12-18T04:42:15.572Z,94.15
2018-12-18T04:43:15.562Z,94.30
2018-12-18T04:44:15.563Z,94.26
2018-12-18T04:45:15.851Z,94.40
2018-12-18T04:46:15.533Z,94.15
2018-12-18T04:47:15.536Z,93.95
2018-12-18T04:48:15.505Z,94.88
2018-12-18T04:49:15.527Z,94.57
2018-12-18T04:50:15.491Z,94.46
2018-12-18T04:51:15.468Z,94.98
2018-12-18T04:52:15.463Z,94.78
2018-12-18T04:53:15.451Z,94.98
2018-12-18T04:54:15.433Z,94.88
2018-12-18T04:55:15.446Z,94.71
2018-12-18T04:56:15.422Z,94.67
2018-12-18T04:57:15.406Z,94.98
2018-12-18T04:58:15.395Z,94.98
2018-12-18T04:59:15.386Z,95.09
2018-12-18T05:00:15.386Z,94.88
2018-12-18T05:01:15.361Z,94.78
2018-12-18T05:02:15.353Z,95.29
2018-12-18T05:03:15.336Z,94.88
2018-12-18T05:04:15.329Z,94.78
2018-12-18T05:05:15.331Z,95.40
2018-12-18T05:06:15.303Z,95.29
2018-12-18T05:07:15.293Z,94.98
2018-12-18T05:08:15.291Z,94.88
2018-12-18T05:09:15.270Z,95.54
2018-12-18T05:10:15.283Z,96.06
2018-12-18T05:11:15.249Z,95.96
2018-12-18T05:12:15.237Z,95.44
2018-12-18T05:13:15.229Z,96.23
2018-12-18T05:14:15.217Z,96.17
2018-12-18T05:15:15.225Z,96.12
2018-12-18T05:16:15.198Z,96.17
2018-12-18T05:17:15.191Z,95.92
2018-12-18T05:18:15.170Z,96.06
2018-12-18T05:19:15.166Z,96.44
2018-12-18T05:20:15.177Z,96.02
2018-12-18T05:21:15.158Z,96.23
2018-12-18T05:22:15.127Z,95.86
2018-12-18T05:23:15.117Z,95.61
2018-12-18T05:24:15.105Z,95.50
2018-12-18T05:25:15.117Z,96.02
2018-12-18T05:26:15.080Z,96.23
2018-12-18T05:27:15.073Z,96.12
2018-12-18T05:28:16.265Z,95.92
2018-12-18T05:29:15.057Z,96.33
2018-12-18T05:30:15.055Z,96.33
2018-12-18T05:31:15.024Z,96.12
2018-12-18T05:32:15.016Z,96.23
2018-12-18T05:33:15.011Z,95.92
2018-12-18T05:34:14.996Z,96.44
2018-12-18T05:35:15.005Z,96.58
2018-12-18T05:36:14.973Z,96.33
2018-12-18T05:37:14.963Z,96.33
2018-12-18T05:38:14.951Z,96.44
2018-12-18T05:39:14.942Z,96.23
2018-12-18T05:40:14.941Z,96.23
2018-12-18T05:41:14.917Z,96.12
2018-12-18T05:42:14.905Z,95.92
2018-12-18T05:43:14.897Z,96.23
2018-12-18T05:44:14.881Z,95.92
2018-12-18T05:45:14.879Z,96.12
2018-12-18T05:46:14.872Z,95.92
2018-12-18T05:47:14.850Z,96.12
2018-12-18T05:48:14.838Z,96.12
2018-12-18T05:49:14.826Z,95.92
2018-12-18T05:50:14.814Z,96.33
2018-12-18T05:51:14.823Z,96.12
2018-12-18T05:52:14.792Z,96.33
2018-12-18T05:53:14.792Z,96.23
2018-12-18T05:54:14.768Z,96.23
2018-12-18T05:55:14.759Z,96.12
2018-12-18T05:56:14.763Z,95.71
2018-12-18T05:57:14.736Z,95.61
2018-12-18T05:58:14.725Z,95.71
2018-12-18T05:59:14.708Z,95.92
2018-12-18T06:00:14.698Z,95.87
2018-12-18T06:01:14.707Z,96.44
2018-12-18T06:02:14.675Z,95.15
2018-12-18T06:03:14.672Z,95.19
2018-12-18T06:04:14.655Z,95.04
2018-12-18T06:05:14.656Z,94.98
2018-12-18T06:06:14.674Z,95.04
2018-12-18T06:07:14.627Z,94.94
2018-12-18T06:08:14.612Z,95.36
2018-12-18T06:09:14.599Z,94.94
2018-12-18T06:10:14.590Z,94.84
2018-12-18T06:11:14.594Z,95.04
2018-12-18T06:12:14.569Z,95.04
2018-12-18T06:13:14.554Z,94.84
2018-12-18T06:14:14.545Z,94.42
2018-12-18T06:15:14.532Z,94.32
2018-12-18T06:16:14.545Z,94.42
2018-12-18T06:17:14.517Z,94.42
2018-12-18T06:18:14.498Z,94.32
2018-12-18T06:19:14.494Z,94.63
2018-12-18T06:20:14.484Z,94.94
2018-12-18T06:21:14.485Z,94.89
2018-12-18T06:22:14.456Z,94.06
2018-12-18T06:23:14.446Z,94.27
2018-12-18T06:24:14.430Z,93.96
2018-12-18T06:25:16.510Z,94.06
2018-12-18T06:26:14.440Z,93.96
2018-12-18T06:27:14.404Z,93.96
2018-12-18T06:28:14.389Z,94.17
2018-12-18T06:29:14.377Z,93.96
2018-12-18T06:30:14.361Z,93.96
2018-12-18T06:31:14.372Z,94.37
2018-12-18T06:32:14.340Z,94.27
2018-12-18T06:33:14.334Z,94.27
2018-12-18T06:34:14.322Z,94.58
2018-12-18T06:35:14.317Z,94.06
2018-12-18T06:36:14.333Z,94.37
2018-12-18T06:37:14.289Z,93.75
2018-12-18T06:38:14.275Z,94.27
2018-12-18T06:39:14.260Z,94.17
2018-12-18T06:40:14.258Z,93.85
2018-12-18T06:41:14.243Z,94.17
2018-12-18T06:42:14.250Z,94.17
2018-12-18T06:43:14.214Z,94.27
2018-12-18T06:44:14.210Z,94.27
2018-12-18T06:45:14.194Z,93.75
2018-12-18T06:46:14.184Z,93.85
2018-12-18T06:47:14.194Z,93.54
2018-12-18T06:48:14.164Z,93.65
2018-12-18T06:49:14.172Z,93.23
2018-12-18T06:50:14.138Z,93.13
2018-12-18T06:51:14.125Z,93.13
2018-12-18T06:52:14.132Z,93.65
2018-12-18T06:53:14.109Z,93.44
2018-12-18T06:54:14.093Z,93.85
2018-12-18T06:55:14.085Z,93.96
2018-12-18T06:56:14.080Z,94.17
2018-12-18T06:57:14.075Z,93.96
2018-12-18T06:58:14.048Z,94.06
2018-12-18T06:59:14.039Z,94.06
2018-12-18T07:00:14.028Z,94.27
2018-12-18T07:01:14.030Z,94.06
2018-12-18T07:02:14.024Z,94.27
2018-12-18T07:03:13.997Z,93.96
2018-12-18T07:04:13.982Z,94.06
2018-12-18T07:05:16.922Z,94.27
2018-12-18T07:06:13.964Z,94.17
2018-12-18T07:07:13.974Z,94.27
2018-12-18T07:08:13.940Z,93.96
2018-12-18T07:09:13.942Z,94.27
2018-12-18T07:10:13.913Z,93.96
2018-12-18T07:11:13.909Z,93.75
2018-12-18T07:12:13.908Z,93.75
2018-12-18T07:13:13.886Z,93.85
2018-12-18T07:14:13.868Z,93.75
2018-12-18T07:15:13.855Z,94.58
2018-12-18T07:16:13.845Z,94.48
2018-12-18T07:17:13.848Z,94.37
2018-12-18T07:18:13.828Z,93.85
2018-12-18T07:19:13.817Z,93.75
2018-12-18T07:20:13.807Z,94.58
2018-12-18T07:21:13.795Z,94.79
2018-12-18T07:22:13.803Z,94.06
2018-12-18T07:23:13.775Z,93.85
2018-12-18T07:24:14.353Z,94.37
2018-12-18T07:25:13.743Z,94.27
2018-12-18T07:26:13.732Z,94.68
2018-12-18T07:27:13.734Z,94.73
2018-12-18T07:28:13.715Z,94.68
2018-12-18T07:29:13.702Z,94.53
2018-12-18T07:30:13.690Z,94.58
2018-12-18T07:31:13.675Z,94.84
2018-12-18T07:32:13.685Z,94.79
2018-12-18T07:33:13.659Z,95.15
2018-12-18T07:34:13.643Z,94.32
2018-12-18T07:35:13.639Z,95.04
2018-12-18T07:36:13.627Z,95.04
2018-12-18T07:37:13.623Z,94.84
2018-12-18T07:38:13.596Z,94.73
2018-12-18T07:39:13.588Z,95.04
2018-12-18T07:40:13.580Z,94.73
2018-12-18T07:41:13.570Z,94.84
2018-12-18T07:42:13.574Z,94.84
2018-12-18T07:43:13.549Z,95.04
2018-12-18T07:44:13.541Z,95.56
2018-12-18T07:45:13.524Z,95.00
2018-12-18T07:46:13.515Z,95.00
2018-12-18T07:47:13.519Z,94.37
2018-12-18T07:48:13.489Z,94.68
2018-12-18T07:49:13.479Z,95.00
2018-12-18T07:50:13.469Z,94.37
2018-12-18T07:51:13.451Z,93.85
2018-12-18T07:52:13.616Z,93.81
2018-12-18T07:53:13.437Z,94.06
2018-12-18T07:54:13.428Z,94.74
2018-12-18T07:55:13.413Z,94.33
2018-12-18T07:56:13.401Z,93.91
2018-12-18T07:57:13.403Z,94.23
2018-12-18T07:58:13.379Z,94.02
2018-12-18T07:59:13.413Z,94.29
2018-12-18T08:00:13.356Z,92.94
2018-12-18T08:01:13.338Z,92.84
2018-12-18T08:02:13.350Z,92.74
2018-12-18T08:03:13.320Z,92.94
2018-12-18T08:04:13.312Z,92.94
2018-12-18T08:05:13.297Z,92.11
2018-12-18T08:06:13.282Z,92.43
2018-12-18T08:07:13.301Z,92.53
2018-12-18T08:08:13.264Z,92.63
2018-12-18T08:09:13.249Z,92.80
2018-12-18T08:10:13.249Z,92.28
2018-12-18T08:11:13.229Z,92.49
2018-12-18T08:12:13.253Z,91.55
2018-12-18T08:13:13.214Z,91.97
2018-12-18T08:14:13.198Z,91.86
2018-12-18T08:15:13.185Z,91.76
2018-12-18T08:16:13.186Z,91.66
2018-12-18T08:17:13.187Z,91.35
2018-12-18T08:18:13.151Z,91.55
2018-12-18T08:19:13.136Z,91.45
2018-12-18T08:20:13.129Z,92.03
2018-12-18T08:21:13.117Z,91.86
2018-12-18T08:22:13.106Z,91.55
2018-12-18T08:23:13.144Z,91.45
2018-12-18T08:24:13.086Z,91.24
2018-12-18T08:25:13.075Z,91.97
2018-12-18T08:26:13.065Z,91.14
2018-12-18T08:27:13.049Z,90.93
2018-12-18T08:28:13.057Z,91.03
2018-12-18T08:29:13.031Z,90.89
2018-12-18T08:30:13.019Z,91.03
2018-12-18T08:31:13.019Z,91.20
2018-12-18T08:32:12.993Z,90.93
2018-12-18T08:33:13.009Z,90.83
2018-12-18T08:34:12.968Z,91.45
2018-12-18T08:35:12.961Z,91.55
2018-12-18T08:36:12.951Z,91.45
2018-12-18T08:37:12.944Z,91.55
2018-12-18T08:38:12.945Z,91.45
2018-12-18T08:39:12.911Z,91.55
2018-12-18T08:40:12.919Z,91.24
2018-12-18T08:41:12.950Z,91.55
2018-12-18T08:42:12.879Z,91.66
2018-12-18T08:43:12.890Z,91.97
2018-12-18T08:44:12.858Z,91.03
2018-12-18T08:45:12.848Z,91.76
2018-12-18T08:46:12.837Z,91.55
2018-12-18T08:47:12.826Z,91.35
2018-12-18T08:48:12.834Z,91.55
2018-12-18T08:49:12.805Z,91.66
2018-12-18T08:50:12.790Z,91.86
2018-12-18T08:51:12.782Z,91.45
2018-12-18T08:52:12.775Z,91.66
2018-12-18T08:53:12.780Z,91.45
2018-12-18T08:54:12.774Z,91.14
2018-12-18T08:55:12.742Z,91.03
2018-12-18T08:56:12.721Z,91.45
2018-12-18T08:57:12.715Z,91.03
2018-12-18T08:58:12.716Z,90.83
2018-12-18T08:59:12.697Z,91.03
2018-12-18T09:00:12.678Z,91.03
2018-12-18T09:01:12.672Z,91.09
2018-12-18T09:02:12.654Z,91.24
2018-12-18T09:03:12.671Z,90.83
2018-12-18T09:04:12.632Z,90.68
2018-12-18T09:05:12.618Z,90.16
2018-12-18T09:06:12.626Z,90.31
2018-12-18T09:07:12.602Z,90.26
2018-12-18T09:08:12.607Z,91.20
2018-12-18T09:09:12.654Z,90.16
2018-12-18T09:10:12.564Z,89.79
2018-12-18T09:11:12.564Z,90.31
2018-12-18T09:12:12.554Z,91.35
2018-12-18T09:13:12.560Z,91.09
2018-12-18T09:14:12.516Z,91.20
2018-12-18T09:15:12.504Z,90.06
2018-12-18T09:16:12.501Z,90.37
2018-12-18T09:17:12.484Z,89.75
2018-12-18T09:18:12.489Z,89.65
2018-12-18T09:19:12.479Z,89.65
2018-12-18T09:20:12.452Z,89.40
2018-12-18T09:21:12.448Z,89.44
2018-12-18T09:22:12.426Z,89.40
2018-12-18T09:23:12.418Z,89.19
2018-12-18T09:24:12.427Z,89.19
2018-12-18T09:25:12.396Z,88.98
2018-12-18T09:26:12.384Z,89.19
2018-12-18T09:27:12.372Z,89.40
2018-12-18T09:28:12.386Z,89.29
2018-12-18T09:29:12.354Z,89.29
2018-12-18T09:30:12.360Z,88.67
2018-12-18T09:31:12.332Z,89.19
2018-12-18T09:32:12.321Z,89.50
2018-12-18T09:33:12.307Z,89.40
2018-12-18T09:34:12.296Z,89.09
2018-12-18T09:35:12.309Z,89.19
2018-12-18T09:36:12.271Z,89.40
2018-12-18T09:37:12.261Z,89.50
2018-12-18T09:38:12.249Z,89.04
2018-12-18T09:39:12.293Z,88.74
2018-12-18T09:40:12.241Z,88.84
2018-12-18T09:41:12.210Z,88.84
2018-12-18T09:42:12.206Z,88.74
2018-12-18T09:43:12.192Z,88.53
2018-12-18T09:44:12.190Z,88.22
2018-12-18T09:45:12.192Z,88.12
2018-12-18T09:46:12.158Z,88.32
2018-12-18T09:47:12.144Z,88.49
2018-12-18T09:48:12.137Z,88.01
2018-12-18T09:49:12.125Z,87.60
2018-12-18T09:50:12.131Z,87.70
2018-12-18T09:51:12.104Z,87.76
2018-12-18T09:52:12.092Z,87.97
2018-12-18T09:53:12.081Z,87.56
2018-12-18T09:54:12.071Z,86.42
2018-12-18T09:55:12.074Z,87.35
2018-12-18T09:56:12.055Z,87.56
2018-12-18T09:57:12.038Z,86.32
2018-12-18T09:58:12.029Z,86.11
2018-12-18T09:59:12.084Z,87.15
2018-12-18T10:00:12.022Z,87.25
2018-12-18T10:01:11.990Z,86.63
2018-12-18T10:02:11.976Z,86.42
2018-12-18T10:03:11.969Z,87.08
2018-12-18T10:04:11.962Z,87.29
2018-12-18T10:05:11.965Z,87.70
2018-12-18T10:06:11.967Z,87.46
2018-12-18T10:07:11.924Z,87.70
2018-12-18T10:08:11.912Z,87.91
2018-12-18T10:09:11.897Z,87.60
2018-12-18T10:10:11.904Z,87.87
2018-12-18T10:11:11.897Z,87.70
2018-12-18T10:12:11.869Z,87.76
2018-12-18T10:13:11.856Z,88.32
2018-12-18T10:14:11.894Z,86.94
2018-12-18T10:15:11.830Z,87.35
2018-12-18T10:16:11.840Z,87.70
2018-12-18T10:17:11.810Z,87.56
2018-12-18T10:18:11.802Z,87.49
2018-12-18T10:19:11.792Z,87.18
2018-12-18T10:20:11.774Z,87.15
2018-12-18T10:21:11.782Z,87.25
2018-12-18T10:22:11.753Z,87.25
2018-12-18T10:23:11.744Z,87.46
2018-12-18T10:24:11.730Z,87.66
2018-12-18T10:25:11.720Z,87.25
2018-12-18T10:26:11.732Z,86.79
2018-12-18T10:27:11.699Z,86.49
2018-12-18T10:28:11.688Z,86.69
2018-12-18T10:29:11.674Z,86.07
2018-12-18T10:30:11.666Z,86.11
2018-12-18T10:31:11.670Z,87.35
2018-12-18T10:32:11.644Z,87.15
2018-12-18T10:33:11.632Z,87.04
2018-12-18T10:34:11.617Z,87.15
2018-12-18T10:35:11.611Z,86.32
2018-12-18T10:36:11.618Z,86.83
2018-12-18T10:37:11.580Z,87.15
2018-12-18T10:38:11.580Z,87.10
2018-12-18T10:39:11.566Z,86.73
2018-12-18T10:40:11.549Z,85.86
2018-12-18T10:41:11.589Z,85.86
2018-12-18T10:42:11.529Z,86.07
2018-12-18T10:43:11.522Z,85.76
2018-12-18T10:44:11.506Z,85.62
2018-12-18T10:45:13.789Z,85.35
2018-12-18T10:46:11.502Z,85.41
2018-12-18T10:47:11.476Z,85.21
2018-12-18T10:48:11.470Z,85.68
2018-12-18T10:49:11.450Z,84.96
2018-12-18T10:50:11.438Z,84.55
2018-12-18T10:51:11.444Z,84.20
2018-12-18T10:52:11.418Z,84.09
2018-12-18T10:53:11.406Z,83.48
2018-12-18T10:54:11.400Z,83.48
2018-12-18T10:55:11.380Z,83.48
2018-12-18T10:56:11.395Z,83.27
2018-12-18T10:57:11.362Z,82.96
2018-12-18T10:58:11.354Z,82.96
2018-12-18T10:59:11.336Z,83.48
2018-12-18T11:00:11.325Z,82.65
2018-12-18T11:01:11.359Z,83.17
2018-12-18T11:02:11.305Z,83.48
2018-12-18T11:03:11.288Z,83.17
2018-12-18T11:04:11.286Z,83.48
2018-12-18T11:05:11.276Z,82.96
2018-12-18T11:06:11.276Z,83.27
2018-12-18T11:07:11.246Z,82.75
2018-12-18T11:08:11.236Z,82.96
2018-12-18T11:09:11.229Z,83.20
2018-12-18T11:10:11.212Z,82.69
2018-12-18T11:11:11.254Z,83.20
2018-12-18T11:12:11.192Z,83.41
2018-12-18T11:13:11.178Z,84.13
2018-12-18T11:14:11.174Z,84.34
2018-12-18T11:15:11.153Z,84.03
2018-12-18T11:16:11.158Z,84.34
2018-12-18T11:17:11.140Z,84.65
2018-12-18T11:18:11.124Z,84.34
2018-12-18T11:19:11.116Z,84.34
2018-12-18T11:20:11.096Z,84.13
2018-12-18T11:21:11.112Z,83.78
2018-12-18T11:22:11.079Z,83.78
2018-12-18T11:23:11.070Z,83.48
2018-12-18T11:24:11.056Z,83.58
2018-12-18T11:25:11.043Z,83.58
2018-12-18T11:26:11.062Z,83.13
2018-12-18T11:27:11.018Z,82.96
2018-12-18T11:28:11.014Z,82.51
2018-12-18T11:29:11.000Z,82.75
2018-12-18T11:30:10.987Z,82.82
2018-12-18T11:31:10.993Z,82.65
2018-12-18T11:32:10.965Z,82.55
2018-12-18T11:33:10.953Z,82.96
2018-12-18T11:34:10.945Z,83.13
2018-12-18T11:35:10.945Z,82.65
2018-12-18T11:36:16.525Z,82.30
2018-12-18T11:37:11.917Z,81.58
2018-12-18T11:38:10.900Z,81.99
2018-12-18T11:39:10.890Z,81.89
2018-12-18T11:40:10.876Z,81.65
2018-12-18T11:41:10.884Z,80.93
2018-12-18T11:42:10.866Z,80.58
2018-12-18T11:43:10.844Z,79.96
2018-12-18T11:44:10.829Z,79.82
2018-12-18T11:45:10.816Z,79.20
2018-12-18T11:46:10.822Z,79.10
2018-12-18T11:47:10.824Z,79.16
2018-12-18T11:48:10.784Z,78.75
2018-12-18T11:49:10.776Z,78.28
2018-12-18T11:50:10.765Z,78.58
2018-12-18T11:51:10.768Z,78.58
2018-12-18T11:52:10.754Z,79.24
2018-12-18T11:53:10.724Z,78.69
2018-12-18T11:54:10.712Z,78.79
2018-12-18T11:55:10.703Z,78.89
2018-12-18T11:56:10.695Z,78.96
2018-12-18T11:57:10.695Z,78.55
2018-12-18T11:58:10.669Z,77.93
2018-12-18T11:59:10.668Z,78.44
2018-12-18T12:00:10.650Z,78.55
2018-12-18T12:01:10.636Z,78.00
2018-12-18T12:02:10.668Z,76.97
2018-12-18T12:03:10.616Z,76.76
2018-12-18T12:04:10.626Z,76.52
2018-12-18T12:05:10.631Z,75.70
2018-12-18T12:06:10.602Z,75.35
2018-12-18T12:07:10.588Z,75.04
2018-12-18T12:08:10.560Z,74.53
2018-12-18T12:09:10.555Z,74.63
2018-12-18T12:10:10.535Z,74.33
2018-12-18T12:11:10.522Z,74.53
2018-12-18T12:12:10.539Z,74.84
2018-12-18T12:13:10.497Z,75.35
2018-12-18T12:14:10.498Z,75.35
2018-12-18T12:15:10.475Z,74.53
2018-12-18T12:16:10.464Z,74.53
2018-12-18T12:17:10.480Z,74.53
2018-12-18T12:18:10.443Z,74.46
2018-12-18T12:19:10.488Z,75.84
2018-12-18T12:20:10.423Z,76.21
2018-12-18T12:21:10.415Z,76.39
2018-12-18T12:22:10.436Z,77.21
2018-12-18T12:23:10.384Z,78.03
2018-12-18T12:24:10.376Z,77.93
2018-12-18T12:25:10.366Z,78.58
2018-12-18T12:26:10.349Z,78.48
2018-12-18T12:27:10.360Z,78.28
2018-12-18T12:28:10.334Z,78.69
2018-12-18T12:29:10.322Z,78.58
2018-12-18T12:30:10.310Z,78.69
2018-12-18T12:31:10.292Z,78.89
2018-12-18T12:32:10.310Z,79.20
2018-12-18T12:33:10.289Z,79.30
2018-12-18T12:34:10.260Z,78.79
2018-12-18T12:35:10.252Z,78.28
2018-12-18T12:36:10.246Z,78.48
2018-12-18T12:37:10.230Z,79.03
2018-12-18T12:38:10.236Z,78.62
2018-12-18T12:39:10.204Z,78.83
2018-12-18T12:40:10.194Z,79.96
2018-12-18T12:41:10.188Z,79.75
2018-12-18T12:42:10.171Z,79.58
2018-12-18T12:43:10.179Z,79.79
2018-12-18T12:44:10.152Z,80.30
2018-12-18T12:45:10.142Z,80.62
2018-12-18T12:46:10.128Z,80.14
2018-12-18T12:47:10.117Z,80.76
2018-12-18T12:48:10.119Z,81.58
2018-12-18T12:49:10.089Z,81.17
2018-12-18T12:50:10.082Z,81.51
2018-12-18T12:51:10.073Z,82.86
2018-12-18T12:52:10.059Z,83.20